x

San Nicolas Island (72291) Weather Station

9:57 - Wed 26th Apr 2017 All times are PDT. -7 hours from GMT.

  • Wind
    39mph, 52mph gusts
  • Luft Temp 53°f
  • Sea Pressure 1012.2mb
  • San Nicolas Island
  • San Nicolas Island

More Historic Weather Station data

Upgrade to MSW Pro to gain access to the past 30 days of data for over 8000 Wavebouys and Weather Stations around the globe.

Join Pro

Comparision Forecast

View Surf forecast
   
Mi 04/26 9:57 39 52 mph 1012.2mb 53f
8:57 35 48 mph 1012.2mb 54f
7:57 36 47 mph 1011.9mb 54f
7:27 37 50 mph 1011.5mb 55f
6:58 38 48 mph 1011.5mb 57f
5:57 36 52 mph 1011.9mb -
4:57 33 48 mph 1012.2mb -
3:57 43 53 mph 1012.2mb 62f
2:57 38 53 mph 1012.5mb 63f
1:57 38 52 mph 1012.9mb 64f
12:57 39 48 mph 1013.2mb 65f
11:57 35 46 mph 1013.9mb 66f
10:57 30 38 mph 1013.9mb 62f
9:57 27 36 mph 1014.6mb 60f
8:57 27 37 mph 1013.9mb 58f
7:57 31 37 mph 1013.2mb 57f
6:57 27
mph
1012.5mb 56f
6:27 24 35 mph 1012.5mb 54f
5:57 28 37 mph 1012.2mb -
4:57 31 39 mph 1012.2mb -
3:57 31 38 mph 1012.2mb -
2:57 32 43 mph 1012.2mb -
1:57 28 38 mph 1012.9mb -
12:57 30 44 mph 1013.2mb -
Di 04/25 11:57 33 41 mph 1013.5mb -
10:57 33 45 mph 1014.2mb -
9:57 37 48 mph 1013.9mb -
8:57 28 41 mph 1013.2mb -
7:57 36 48 mph 1012.9mb -
6:57 39 53 mph 1012.5mb -
5:57 37 53 mph 1012.2mb -
4:57 33 48 mph 1012.2mb -
3:57 39 54 mph 1012.9mb 58f
2:57 40 55 mph 1013.5mb 59f
2:16 45 53 mph 1013.9mb 59f
1:57 37 51 mph 1014.2mb 59f
12:57 39 52 mph 1014.9mb 59f
11:57 36 46 mph 1015.6mb 60f
10:57 33 46 mph 1015.2mb 59f
9:57 29 39 mph 1014.9mb 59f
8:57 27 36 mph 1014.6mb 56f
7:57 31 41 mph 1013.5mb 54f
6:57 33 43 mph 1013.2mb 52f
6:29 29 43 mph 1012.9mb 52f
5:57 28 39 mph 1012.5mb -
4:57 33 43 mph 1012.5mb -
3:57 35 45 mph 1012.5mb -
2:57 32 43 mph 1012.9mb -
1:57 31 38 mph 1013.2mb -
12:57 30 41 mph 1013.9mb -
Mo 04/24 11:57 32 45 mph 1013.2mb -
11:45 31 47 mph 1013.5mb -
10:57 33 43 mph 1013.5mb -
9:57 37 47 mph 1013.9mb -
8:57 35 47 mph 1013.2mb -
7:57 36 50 mph 1013.2mb -
6:57 35 48 mph 1012.9mb -
5:57 36 50 mph 1013.2mb -
4:57 39 52 mph 1013.5mb -
3:57 35 48 mph 1013.5mb 59f
2:57 33 43 mph 1014.6mb 59f
1:57 31 43 mph 1015.2mb 60f
12:57 31 45 mph 1015.6mb 61f
11:57 29
mph
1015.9mb 60f
10:57 32 43 mph 1015.6mb 57f
9:57 27 36 mph 1014.9mb 56f
8:57 28 41 mph 1014.2mb 56f
7:57 28 37 mph 1013.9mb 55f
6:57 25 37 mph 1013.2mb 53f
5:57 27 37 mph 1012.2mb -
5:46 28 35 mph 1012.2mb -
4:57 27 36 mph 1012.2mb -
3:57 31 39 mph 1011.9mb -
2:57 29 38 mph 1011.5mb -
1:57 31 40 mph 1012.2mb -
12:57 33 41 mph 1012.2mb -
So 04/23 11:57 31 39 mph 1011.9mb -
10:57 32 47 mph 1011.9mb -
9:57 35 41 mph 1012.5mb -
8:57 33 45 mph 1011.9mb -
7:57 33 44 mph 1011.5mb -
6:57 33 44 mph 1011.5mb -
5:57 32 45 mph 1011.5mb -
4:57 39 52 mph 1013.5mb -
3:57 33 43 mph 1012.2mb -
2:57 32 45 mph 1012.5mb -
1:57 35 46 mph 1012.5mb -
1:19 35 45 mph 1012.9mb 62f
12:57 35 41 mph 1012.9mb 62f
11:57 35 44 mph 1013.2mb 60f
10:57 31 43 mph 1012.9mb -
9:57 28 41 mph 1012.2mb -
8:57 32 46 mph 1012.2mb -
7:57 32 44 mph 1011.9mb -
6:57 31 44 mph 1011.2mb -
5:57 32 41 mph 1010.5mb -